Nearby METAR Reports

 

CWMM - Pitt Meadows, BC, Canada
Distance from station: ESE 9km
Updated: 10/23/2018 7:00am

 Wind from E
Wind: E 4 km/h
Temperature: 4°C
Dew Point: 3°C
Humidity: 93%
2018/10/23 14:00 CWMM 231400Z AUTO 10002KT 04/03 RMK AO1 SLP108 T00360033 51005
CWWK - White Rock, BC, Canada
Distance from station: S 27km
Updated: 10/23/2018 7:00am

 Wind from calm
Wind: Calm
Temperature: 6°C
Dew Point: 5°C
Humidity: 93%
2018/10/23 14:00 CWWK 231400Z AUTO 00000KT 06/05 RMK AO1 SLP108 T00560048 50003
 
CWWA - West Vancouver, BC, Canada
Distance from station: WNW 30km
Updated: 10/23/2018 7:00am

 Wind from NNE
Wind: NNE 2 km/h
Temperature: 9°C
Dew Point: 6°C
Humidity: 82%
2018/10/23 14:00 CWWA 231400Z AUTO 03001KT 09/06 RMK AO1 SLP103 T00910062 53001
CYVR - Vancouver Airport , Canada
Distance from station: WSW 30km
Updated: 10/23/2018 7:00am
Shallow fog, Few clouds
Shallow fog, Few clouds
 Wind from E
Wind: E 9 km/h
Temperature: 7°C
Wind Chill: 6°C
Dew Point: 6°C
Humidity: 93%
Barometer: 1010.2 hPa
Summary: Shallow Fog
Clouds: Few Clouds
Visibility: 24 km
Cloud details: Few Clouds 7620 m
2018/10/23 14:00 CYVR 231400Z 08005KT 15SM MIFG FEW250 07/06 A2983 RMK CI1 SLP104
 
CYXX - Abbotsford, BC, Canada
Distance from station: SE 38km
Updated: 10/23/2018 7:00am
Few Clouds
Few Clouds
 Wind from varies
Wind: varies 4 km/h
Temperature: 4°C
Dew Point: 3°C
Humidity: 93%
Barometer: 1010.5 hPa
Clouds: Few Clouds
Visibility: 48 km
Cloud details: Few Clouds 6706 m
2018/10/23 14:00 CYXX 231400Z VRB02KT 30SM FEW220 04/03 A2984 RMK CI1 CI TR SLP108
CWVF - Sand Heads Lighthouse, BC, Canada
Distance from station: WSW 41km
Updated: 10/23/2018 7:00am

 Wind from ESE
Wind: ESE 11 km/h
Temperature: 8°C
Wind Chill: 6°C
2018/10/23 14:00 CWVF 231400Z AUTO 12006KT 08/ RMK AO1 T0084
 
KBLI - Bellingham, WA, USA
Distance from station: SSE 54km
Updated: 10/23/2018 7:10am
Fog, Overcast
Fog, Overcast
 Wind from calm
Wind: Calm
Temperature: 5°C
Dew Point: 3°C
Humidity: 87%
Barometer: 1010.5 hPa
Summary: Fog
Clouds: Overcast
Visibility: 0.8 km
Cloud details: Overcast 30 m
2018/10/23 14:10 KBLI 231410Z 00000KT 1/2SM R16/1800VP6000FT FG VV001 05/03 A2984 RMK AO2 T00500033
CWEZ - Saturna Island, BC, Canada
Distance from station: SSW 56km
Updated: 10/23/2018 7:00am

 Wind from S
Wind: S 6 km/h
Temperature: 9°C
Dew Point: 9°C
Humidity: 100%
2018/10/23 14:00 CWEZ 231400Z AUTO 17003KT 09/09 RMK AO1 SLP100 T00880087 53001
 
KORS - Orcas Island Airport, WA, USA
Distance from station: S 63km
Updated: 10/23/2018 7:15am
Fog, Overcast
Fog, Overcast
 Wind from SE
Wind: SE 11 km/h
Temperature: 7°C
Wind Chill: 5°C
Dew Point: 7°C
Humidity: 100%
Barometer: 1010.2 hPa
Summary: Fog
Clouds: Overcast
Visibility: 0.4 km
Cloud details: Overcast 61 m
2018/10/23 14:15 KORS 231415Z AUTO 13006KT 1/4SM FG OVC002 07/07 A2983 RMK AO2
CWSK - Squamish, BC, Canada
Distance from station: NNW 65km
Updated: 10/23/2018 7:00am

 Wind from N
Wind: N 4 km/h
Temperature: 5°C
Dew Point: 4°C
Humidity: 93%
2018/10/23 14:00 CWSK 231400Z AUTO 01002KT 05/04 RMK AO1 SLP108 T00500040 55001
 
CWEL - Entrance Island, BC, Canada
Distance from station: W 73km
Updated: 10/23/2018 7:00am

 Wind from SSE
Wind: SSE 4 km/h
Temperature: 9°C
Dew Point: 8°C
Humidity: 94%
2018/10/23 14:00 CWEL 231400Z AUTO 16002KT 09/08 RMK AO1 6002 SLP099 T00870082 50002
CWZA - Agassiz, BC, Canada
Distance from station: E 74km
Updated: 10/23/2018 7:00am

 Wind from WNW
Wind: WNW 7 km/h
Temperature: 12°C
Dew Point: 4°C
Humidity: 58%
2018/10/23 14:00 CWZA 231400Z AUTO 29004KT 12/04 RMK AO1 SLP107 T01150038 53003
 
CYCD - Nanaimo Airport, BC, Canada
Distance from station: WSW 82km
Updated: 10/23/2018 7:00am
Shallow fog, Clear
Shallow fog, Clear
 Wind from calm
Wind: Calm
Temperature: 2°C
Dew Point: 2°C
Humidity: 100%
Barometer: 1010.2 hPa
Summary: Shallow Fog
Clouds: Clear
Visibility: 32 km
2018/10/23 14:00 CYCD 231400Z 00000KT 20SM MIFG SKC 02/02 A2983 RMK SLP103
CYYJ - Victoria Airport, BC, Canada
Distance from station: SW 83km
Updated: 10/23/2018 7:00am
Shallow fog, Few clouds
Shallow fog, Few clouds
 Wind from SSW
Wind: SSW 4 km/h
Temperature: 4°C
Dew Point: 3°C
Humidity: 93%
Barometer: 1010.2 hPa
Summary: Shallow Fog
Clouds: Few Clouds
Visibility: 24 km
Cloud details: Few Clouds 274 m
Few Clouds 7620 m
2018/10/23 14:00 CYYJ 231400Z 21002KT 15SM MIFG FEW009 FEW250 04/03 A2983 RMK SC1CI1 SC TR SLP103
 
KFHR - Friday Harbor Airport, WA, USA
Distance from station: SSW 84km
Updated: 10/23/2018 6:53am
Fog, Overcast
Fog, Overcast
 Wind from calm
Wind: Calm
Temperature: 7°C
Dew Point: 6°C
Humidity: 93%
Barometer: 1010.8 hPa
Summary: Fog
Clouds: Overcast
Visibility: 0.4 km
Cloud details: Overcast 61 m
2018/10/23 13:53 KFHR 231353Z AUTO 00000KT 1/4SM FG VV002 07/06 A2985 RMK AO2 SLP109 T00670056
KBVS - Skagit Regional Airport, WA, USA
Distance from station: SSE 92km
Updated: 10/23/2018 7:15am
Fog, Overcast
Fog, Overcast
 Wind from calm
Wind: Calm
Temperature: 5°C
Dew Point: 5°C
Humidity: 100%
Barometer: 1010.8 hPa
Summary: Fog
Clouds: Overcast
Visibility: 0.4 km
Cloud details: Overcast 61 m
2018/10/23 14:15 KBVS 231415Z AUTO 00000KT M1/4SM FG OVC002 05/05 A2985 RMK A01
 
CYHE - Hope Airport, BC, Canada
Distance from station: E 94km
Updated: 10/23/2018 7:00am
Clear
Clear
 Wind from E
Wind: E 15 km/h
Temperature: 8°C
Wind Chill: 5°C
Dew Point: 4°C
Humidity: 76%
Barometer: 1012.5 hPa
Clouds: Clear
Visibility: 14 km
2018/10/23 14:00 CYHE 231400Z AUTO 09008KT 9SM CLR 08/04 A2990 RMK SLP127
CWKH - Malahat, BC, Canada
Distance from station: SW 95km
Updated: 10/23/2018 7:00am

 
Temperature: 8°C
Dew Point: 5°C
Humidity: 82%
2018/10/23 14:00 CWKH 231400Z AUTO 08/05 RMK AO1 SLP090 T00840054 57002
 
CWYJ - Victoria University, BC, Canada
Distance from station: SSW 97km
Updated: 10/23/2018 7:00am

 Wind from S
Wind: S 4 km/h
Temperature: 7°C
Dew Point: 6°C
Humidity: 93%
2018/10/23 14:00 CWYJ 231400Z AUTO 17002KT 07/06 RMK AO1 SLP105 T00660055 53003
CWAE - Whistler, BC, Canada
Distance from station: N 98km
Updated: 10/23/2018 7:00am
Clear
Clear
 Wind from calm
Wind: Calm
Temperature: 0°C
Dew Point: -1°C
Humidity: 93%
Barometer: 1012.2 hPa
Clouds: Clear
Visibility: 24 km
2018/10/23 14:00 CWAE 231400Z 00000KT 15SM SKC M00/M01 A2989 RMK WND ESTD SLP137
 
CYHM - Hamilton Airport, Ontario, Canada
Distance from station: SSW 4266km
Updated: 10/23/2018 7:00am
Mostly cloudy
Mostly cloudy
 Wind from WSW
Wind: WSW 9 km/h
Temperature: 6°C
Wind Chill: 4°C
Dew Point: 5°C
Humidity: 93%
Barometer: 1013.5 hPa
Clouds: Mostly cloudy
Visibility: 16 km
Cloud details: Few Clouds 762 m
Partly cloudy 1372 m
Mostly cloudy 1585 m
Mostly cloudy 2896 m
2018/10/23 14:00 CYHM 231400Z 24005KT 230V330 10SM FEW025 SCT045 BKN052 BKN095 06/05 A2993 RMK SC1SC3SC1AC2 PRESRR SLP141